createdAt,value
2017-09-05T00:00:44.341Z,1015.58
2017-09-05T00:01:44.378Z,1015.58
2017-09-05T00:02:44.391Z,1015.62
2017-09-05T00:03:44.423Z,1015.63
2017-09-05T00:04:44.461Z,1015.7
2017-09-05T00:05:44.504Z,1015.64
2017-09-05T00:06:44.534Z,1015.67
2017-09-05T00:07:44.555Z,1015.67
2017-09-05T00:08:44.587Z,1015.68
2017-09-05T00:09:44.618Z,1015.68
2017-09-05T00:10:44.654Z,1015.73
2017-09-05T00:11:44.680Z,1015.69
2017-09-05T00:12:44.710Z,1015.68
2017-09-05T00:13:44.742Z,1015.67
2017-09-05T00:14:44.841Z,1015.64
2017-09-05T00:15:44.872Z,1015.67
2017-09-05T00:16:44.898Z,1015.67
2017-09-05T00:17:44.932Z,1015.69
2017-09-05T00:18:45.332Z,1015.66
2017-09-05T00:19:45.364Z,1015.63
2017-09-05T00:20:45.788Z,1015.62
2017-09-05T00:21:45.814Z,1015.61
2017-09-05T00:22:45.850Z,1015.62
2017-09-05T00:23:45.877Z,1015.6
2017-09-05T00:24:45.986Z,1015.58
2017-09-05T00:25:46.385Z,1015.6
2017-09-05T00:26:46.402Z,1015.56
2017-09-05T00:27:46.442Z,1015.59
2017-09-05T00:28:46.464Z,1015.58
2017-09-05T00:29:46.498Z,1015.5
2017-09-05T00:30:46.606Z,1015.52
2017-09-05T00:31:46.919Z,1015.55
2017-09-05T00:32:46.972Z,1015.51
2017-09-05T00:33:48.177Z,1015.55
2017-09-05T00:34:48.204Z,1015.53
2017-09-05T00:35:48.237Z,1015.51
2017-09-05T00:36:48.551Z,1015.53
2017-09-05T00:37:48.561Z,1015.56
2017-09-05T00:38:48.623Z,1015.58
2017-09-05T00:39:48.656Z,1015.55
2017-09-05T00:40:48.684Z,1015.6
2017-09-05T00:42:20.328Z,1015.57
2017-09-05T00:43:01.258Z,1015.55
2017-09-05T00:44:01.288Z,1015.61
2017-09-05T00:45:01.326Z,1015.62
2017-09-05T00:46:01.351Z,1015.61
2017-09-05T00:47:01.381Z,1015.6
2017-09-05T00:48:01.730Z,1015.6
2017-09-05T00:49:01.742Z,1015.61
2017-09-05T00:50:01.785Z,1015.6
2017-09-05T00:51:01.801Z,1015.61
2017-09-05T00:52:01.842Z,1015.61
2017-09-05T00:53:01.869Z,1015.57
2017-09-05T00:54:01.949Z,1015.58
2017-09-05T00:55:02.332Z,1015.58
2017-09-05T00:56:02.358Z,1015.6
2017-09-05T00:57:02.688Z,1015.66
2017-09-05T00:58:02.696Z,1015.62
2017-09-05T00:59:03.045Z,1015.63
2017-09-05T01:00:03.098Z,1015.65
2017-09-05T01:01:03.156Z,1015.66
2017-09-05T01:02:03.163Z,1015.71
2017-09-05T01:03:03.196Z,1015.66
2017-09-05T01:04:03.231Z,1015.71
2017-09-05T01:05:03.659Z,1015.69
2017-09-05T01:06:03.995Z,1015.7
2017-09-05T01:07:04.084Z,1015.68
2017-09-05T01:08:04.116Z,1015.66
2017-09-05T01:09:04.173Z,1015.67
2017-09-05T01:10:04.349Z,1015.64
2017-09-05T01:11:04.691Z,1015.61
2017-09-05T01:12:04.716Z,1015.61
2017-09-05T01:13:04.754Z,1015.62
2017-09-05T01:14:04.778Z,1015.6
2017-09-05T01:15:05.141Z,1015.55
2017-09-05T01:16:05.184Z,1015.55
2017-09-05T01:17:05.212Z,1015.54
2017-09-05T01:18:05.248Z,1015.58
2017-09-05T01:19:05.272Z,1015.52
2017-09-05T01:20:05.328Z,1015.52
2017-09-05T01:21:05.683Z,1015.55
2017-09-05T01:22:05.694Z,1015.5
2017-09-05T01:23:05.724Z,1015.56
2017-09-05T01:24:05.755Z,1015.5
2017-09-05T01:25:05.787Z,1015.47
2017-09-05T01:26:05.816Z,1015.43
2017-09-05T01:27:05.884Z,1015.44
2017-09-05T01:28:05.934Z,1015.46
2017-09-05T01:29:05.948Z,1015.44
2017-09-05T01:30:05.975Z,1015.46
2017-09-05T01:31:06.368Z,1015.47
2017-09-05T01:32:06.391Z,1015.44
2017-09-05T01:33:06.788Z,1015.46
2017-09-05T01:34:06.798Z,1015.45
2017-09-05T01:35:07.148Z,1015.46
2017-09-05T01:36:07.198Z,1015.45
2017-09-05T01:37:07.264Z,1015.47
2017-09-05T01:38:07.255Z,1015.4
2017-09-05T01:39:07.289Z,1015.42
2017-09-05T01:40:07.345Z,1015.46
2017-09-05T01:41:07.355Z,1015.44
2017-09-05T01:42:07.382Z,1015.45
2017-09-05T01:43:07.410Z,1015.47
2017-09-05T01:44:07.789Z,1015.48
2017-09-05T01:45:07.813Z,1015.45
2017-09-05T01:46:07.847Z,1015.43
2017-09-05T01:47:08.211Z,1015.41
2017-09-05T01:48:08.261Z,1015.45
2017-09-05T01:49:08.270Z,1015.46
2017-09-05T01:50:08.298Z,1015.45
2017-09-05T01:51:08.340Z,1015.46
2017-09-05T01:52:08.385Z,1015.44
2017-09-05T01:53:08.810Z,1015.38
2017-09-05T01:54:08.840Z,1015.43
2017-09-05T01:55:08.908Z,1015.44
2017-09-05T01:56:08.901Z,1015.45
2017-09-05T01:57:08.939Z,1015.41
2017-09-05T01:58:08.959Z,1015.45
2017-09-05T01:59:08.990Z,1015.38
2017-09-05T02:00:09.060Z,1015.37
2017-09-05T02:01:09.070Z,1015.41
2017-09-05T02:02:09.098Z,1015.39
2017-09-05T02:03:09.140Z,1015.39
2017-09-05T02:04:09.568Z,1015.36
2017-09-05T02:05:09.578Z,1015.37
2017-09-05T02:06:09.951Z,1015.39
2017-09-05T02:07:09.981Z,1015.32
2017-09-05T02:08:10.007Z,1015.31
2017-09-05T02:09:10.044Z,1015.33
2017-09-05T02:10:10.076Z,1015.33
2017-09-05T02:11:10.099Z,1015.34
2017-09-05T02:12:10.131Z,1015.32
2017-09-05T02:13:10.180Z,1015.31
2017-09-05T02:14:10.191Z,1015.37
2017-09-05T02:15:10.219Z,1015.34
2017-09-05T02:16:10.276Z,1015.41
2017-09-05T02:17:10.311Z,1015.38
2017-09-05T02:18:10.341Z,1015.37
2017-09-05T02:19:10.380Z,1015.37
2017-09-05T02:20:10.688Z,1015.38
2017-09-05T02:21:10.713Z,1015.38
2017-09-05T02:22:10.746Z,1015.35
2017-09-05T02:23:10.776Z,1015.36
2017-09-05T02:24:10.814Z,1015.33
2017-09-05T02:25:10.842Z,1015.35
2017-09-05T02:26:10.875Z,1015.38
2017-09-05T02:27:10.915Z,1015.36
2017-09-05T02:28:10.932Z,1015.35
2017-09-05T02:29:10.963Z,1015.33
2017-09-05T02:30:11.000Z,1015.32
2017-09-05T02:31:11.046Z,1015.39
2017-09-05T02:32:11.081Z,1015.35
2017-09-05T02:33:11.443Z,1015.36
2017-09-05T02:34:11.471Z,1015.32
2017-09-05T02:35:11.530Z,1015.36
2017-09-05T02:36:11.549Z,1015.37
2017-09-05T02:37:11.943Z,1015.41
2017-09-05T02:38:11.975Z,1015.39
2017-09-05T02:39:12.029Z,1015.41
2017-09-05T02:40:12.055Z,1015.38
2017-09-05T02:41:12.084Z,1015.33
2017-09-05T02:42:12.095Z,1015.32
2017-09-05T02:43:12.146Z,1015.28
2017-09-05T02:44:12.153Z,1015.3
2017-09-05T02:45:12.184Z,1015.33
2017-09-05T02:46:12.598Z,1015.34
2017-09-05T02:47:12.644Z,1015.34
2017-09-05T02:48:12.717Z,1015.3
2017-09-05T02:49:12.767Z,1015.36
2017-09-05T02:50:12.836Z,1015.29
2017-09-05T02:51:12.881Z,1015.29
2017-09-05T02:52:12.893Z,1015.23
2017-09-05T02:53:12.921Z,1015.32
2017-09-05T02:54:12.955Z,1015.29
2017-09-05T02:55:13.296Z,1015.24
2017-09-05T02:56:13.318Z,1015.22
2017-09-05T02:57:13.348Z,1015.23
2017-09-05T02:58:13.378Z,1015.24
2017-09-05T02:59:13.767Z,1015.2
2017-09-05T03:00:13.857Z,1015.22
2017-09-05T03:01:13.889Z,1015.18
2017-09-05T03:02:13.945Z,1015.23
2017-09-05T03:03:14.390Z,1015.26
2017-09-05T03:04:14.784Z,1015.25
2017-09-05T03:05:14.815Z,1015.28
2017-09-05T03:06:15.138Z,1015.29
2017-09-05T03:07:15.184Z,1015.26
2017-09-05T03:08:15.199Z,1015.31
2017-09-05T03:09:15.246Z,1015.31
2017-09-05T03:10:15.257Z,1015.35
2017-09-05T03:11:15.284Z,1015.33
2017-09-05T03:12:15.597Z,1015.4
2017-09-05T03:13:16.016Z,1015.38
2017-09-05T03:14:16.375Z,1015.41
2017-09-05T03:15:16.732Z,1015.43
2017-09-05T03:16:16.761Z,1015.38
2017-09-05T03:17:16.789Z,1015.37
2017-09-05T03:18:16.843Z,1015.33
2017-09-05T03:19:16.891Z,1015.36
2017-09-05T03:20:16.896Z,1015.33
2017-09-05T03:21:17.263Z,1015.31
2017-09-05T03:22:17.283Z,1015.28
2017-09-05T03:23:17.395Z,1015.29
2017-09-05T03:24:17.407Z,1015.28
2017-09-05T03:25:17.415Z,1015.34
2017-09-05T03:26:17.447Z,1015.28
2017-09-05T03:27:17.474Z,1015.3
2017-09-05T03:28:17.532Z,1015.29
2017-09-05T03:29:17.538Z,1015.23
2017-09-05T03:30:17.898Z,1015.27
2017-09-05T03:31:17.970Z,1015.32
2017-09-05T03:32:17.999Z,1015.35
2017-09-05T03:33:18.033Z,1015.29
2017-09-05T03:34:18.081Z,1015.3
2017-09-05T03:35:18.091Z,1015.27
2017-09-05T03:36:18.145Z,1015.27
2017-09-05T03:37:18.171Z,1015.22
2017-09-05T03:38:18.201Z,1015.22
2017-09-05T03:39:18.252Z,1015.18
2017-09-05T03:40:18.621Z,1015.2
2017-09-05T03:41:18.687Z,1015.19
2017-09-05T03:42:19.048Z,1015.16
2017-09-05T03:43:19.059Z,1015.12
2017-09-05T03:44:19.086Z,1015.11
2017-09-05T03:45:19.146Z,1015.13
2017-09-05T03:46:19.190Z,1015.21
2017-09-05T03:47:19.277Z,1015.17
2017-09-05T03:48:19.327Z,1015.19
2017-09-05T03:49:19.646Z,1015.19
2017-09-05T03:50:19.661Z,1015.23
2017-09-05T03:51:19.685Z,1015.25
2017-09-05T03:52:19.715Z,1015.25
2017-09-05T03:53:19.769Z,1015.25
2017-09-05T03:54:19.775Z,1015.26
2017-09-05T03:55:19.803Z,1015.27
2017-09-05T03:56:19.858Z,1015.27
2017-09-05T03:57:19.888Z,1015.27
2017-09-05T03:58:19.895Z,1015.25
2017-09-05T03:59:20.281Z,1015.22
2017-09-05T04:00:20.314Z,1015.29
2017-09-05T04:01:20.339Z,1015.28
2017-09-05T04:02:20.375Z,1015.3
2017-09-05T04:03:20.519Z,1015.31
2017-09-05T04:04:20.547Z,1015.26
2017-09-05T04:05:20.680Z,1015.25
2017-09-05T04:06:20.584Z,1015.25
2017-09-05T04:07:20.617Z,1015.29
2017-09-05T04:08:20.977Z,1015.31
2017-09-05T04:09:21.007Z,1015.26
2017-09-05T04:10:21.407Z,1015.35
2017-09-05T04:11:21.514Z,1015.32
2017-09-05T04:12:21.551Z,1015.31
2017-09-05T04:13:21.922Z,1015.31
2017-09-05T04:14:21.953Z,1015.35
2017-09-05T04:15:21.957Z,1015.37
2017-09-05T04:16:22.041Z,1015.33
2017-09-05T04:17:22.070Z,1015.33
2017-09-05T04:18:22.101Z,1015.38
2017-09-05T04:19:22.167Z,1015.42
2017-09-05T04:20:22.481Z,1015.39
2017-09-05T04:21:22.533Z,1015.41
2017-09-05T04:22:22.564Z,1015.42
2017-09-05T04:23:22.595Z,1015.46
2017-09-05T04:24:22.603Z,1015.41
2017-09-05T04:25:22.719Z,1015.47
2017-09-05T04:26:22.745Z,1015.44
2017-09-05T04:27:22.777Z,1015.4
2017-09-05T04:28:23.143Z,1015.38
2017-09-05T04:29:23.176Z,1015.35
2017-09-05T04:30:23.221Z,1015.38
2017-09-05T04:31:23.255Z,1015.35
2017-09-05T04:32:23.285Z,1015.36
2017-09-05T04:33:23.307Z,1015.34
2017-09-05T04:34:23.320Z,1015.4
2017-09-05T04:35:23.354Z,1015.4
2017-09-05T04:36:23.381Z,1015.42
2017-09-05T04:37:23.410Z,1015.41
2017-09-05T04:38:23.442Z,1015.42
2017-09-05T04:39:23.811Z,1015.4
2017-09-05T04:40:23.842Z,1015.36
2017-09-05T04:41:23.902Z,1015.36
2017-09-05T04:42:24.290Z,1015.38
2017-09-05T04:43:24.317Z,1015.39
2017-09-05T04:44:24.687Z,1015.36
2017-09-05T04:45:24.740Z,1015.38
2017-09-05T04:46:24.774Z,1015.38
2017-09-05T04:47:24.799Z,1015.41
2017-09-05T04:48:24.812Z,1015.4
2017-09-05T04:49:24.903Z,1015.44
2017-09-05T04:50:24.955Z,1015.47
2017-09-05T04:51:24.962Z,1015.49
2017-09-05T04:52:24.990Z,1015.48
2017-09-05T04:53:25.027Z,1015.46
2017-09-05T04:54:25.089Z,1015.46
2017-09-05T04:55:25.140Z,1015.47
2017-09-05T04:56:25.170Z,1015.44
2017-09-05T04:57:25.180Z,1015.42
2017-09-05T04:58:25.209Z,1015.43
2017-09-05T04:59:25.292Z,1015.44
2017-09-05T05:00:25.340Z,1015.5
2017-09-05T05:01:25.373Z,1015.54
2017-09-05T05:02:25.447Z,1015.53
2017-09-05T05:03:25.413Z,1015.54
2017-09-05T05:04:25.466Z,1015.53
2017-09-05T05:05:25.817Z,1015.57
2017-09-05T05:06:26.172Z,1015.6
2017-09-05T05:07:26.227Z,1015.64
2017-09-05T05:08:26.241Z,1015.6
2017-09-05T05:09:26.683Z,1015.6
2017-09-05T05:10:26.689Z,1015.54
2017-09-05T05:11:26.764Z,1015.55
2017-09-05T05:12:27.130Z,1015.57
2017-09-05T05:13:27.180Z,1015.59
2017-09-05T05:14:27.208Z,1015.52
2017-09-05T05:15:27.318Z,1015.53
2017-09-05T05:16:27.409Z,1015.52
2017-09-05T05:17:27.771Z,1015.53
2017-09-05T05:18:27.801Z,1015.56
2017-09-05T05:19:27.808Z,1015.57
2017-09-05T05:20:28.234Z,1015.54
2017-09-05T05:21:28.600Z,1015.55
2017-09-05T05:22:28.606Z,1015.61
2017-09-05T05:23:28.656Z,1015.57
2017-09-05T05:24:28.684Z,1015.59
2017-09-05T05:25:28.707Z,1015.59
2017-09-05T05:26:28.736Z,1015.59
2017-09-05T05:27:28.766Z,1015.62
2017-09-05T05:28:28.815Z,1015.64
2017-09-05T05:29:28.835Z,1015.68
2017-09-05T05:30:28.864Z,1015.64
2017-09-05T05:31:28.911Z,1015.59
2017-09-05T05:32:28.922Z,1015.65
2017-09-05T05:33:28.976Z,1015.65
2017-09-05T05:34:29.009Z,1015.67
2017-09-05T05:35:29.013Z,1015.61
2017-09-05T05:36:29.048Z,1015.65
2017-09-05T05:37:29.076Z,1015.69
2017-09-05T05:38:29.107Z,1015.67
2017-09-05T05:39:29.137Z,1015.73
2017-09-05T05:40:29.168Z,1015.72
2017-09-05T05:41:29.199Z,1015.77
2017-09-05T05:42:29.233Z,1015.71
2017-09-05T05:43:29.266Z,1015.69
2017-09-05T05:44:29.373Z,1015.74
2017-09-05T05:45:29.700Z,1015.73
2017-09-05T05:46:29.731Z,1015.76
2017-09-05T05:47:29.762Z,1015.77
2017-09-05T05:48:30.170Z,1015.79
2017-09-05T05:49:30.219Z,1015.82
2017-09-05T05:50:30.566Z,1015.78
2017-09-05T05:51:30.619Z,1015.81
2017-09-05T05:52:30.978Z,1015.82
2017-09-05T05:53:31.308Z,1015.89
2017-09-05T05:54:31.338Z,1015.88
2017-09-05T05:55:31.379Z,1015.91
2017-09-05T05:56:31.466Z,1015.94
2017-09-05T05:57:31.493Z,1015.9
2017-09-05T05:58:31.526Z,1015.92
2017-09-05T05:59:31.873Z,1015.92
2017-09-05T06:00:31.882Z,1015.93
2017-09-05T06:01:31.916Z,1015.98
2017-09-05T06:02:31.950Z,1015.95
2017-09-05T06:03:32.113Z,1015.99
2017-09-05T06:04:32.165Z,1015.98
2017-09-05T06:05:32.202Z,1016.02
2017-09-05T06:06:32.204Z,1015.99
2017-09-05T06:07:32.606Z,1016.11
2017-09-05T06:08:32.636Z,1016.06
2017-09-05T06:09:32.669Z,1016.06
2017-09-05T06:10:33.025Z,1016.08
2017-09-05T06:11:33.062Z,1016.12
2017-09-05T06:12:33.071Z,1016.22
2017-09-05T06:13:33.102Z,1016.22
2017-09-05T06:14:33.489Z,1016.19
2017-09-05T06:15:33.171Z,1016.22
2017-09-05T06:16:33.212Z,1016.19
2017-09-05T06:17:33.518Z,1016.14
2017-09-05T06:18:33.576Z,1016.1
2017-09-05T06:19:33.583Z,1016.14
2017-09-05T06:20:33.711Z,1016.16
2017-09-05T06:21:33.717Z,1016.26
2017-09-05T06:22:33.779Z,1016.22
2017-09-05T06:23:33.809Z,1016.29
2017-09-05T06:24:33.843Z,1016.41
2017-09-05T06:25:33.860Z,1016.66
2017-09-05T06:26:34.263Z,1016.98
2017-09-05T06:27:34.565Z,1017.36
2017-09-05T06:28:34.616Z,1017.68
2017-09-05T06:29:34.631Z,1017.6
2017-09-05T06:30:34.689Z,1017.54
2017-09-05T06:31:34.704Z,1017.45
2017-09-05T06:32:35.143Z,1017.34
2017-09-05T06:33:35.148Z,1017.41
2017-09-05T06:34:35.187Z,1017.41
2017-09-05T06:35:35.578Z,1017.37
2017-09-05T06:36:35.591Z,1017.24
2017-09-05T06:37:35.651Z,1017.17
2017-09-05T06:38:35.664Z,1017.2
2017-09-05T06:39:35.720Z,1017.27
2017-09-05T06:40:35.738Z,1017.27
2017-09-05T06:41:35.777Z,1017.24
2017-09-05T06:42:35.829Z,1017.26
2017-09-05T06:43:35.849Z,1017.08
2017-09-05T06:44:35.909Z,1017.04
2017-09-05T06:45:36.304Z,1017.02
2017-09-05T06:46:36.389Z,1017.01
2017-09-05T06:47:36.736Z,1017.07
2017-09-05T06:48:36.794Z,1017.09
2017-09-05T06:49:36.829Z,1017.05
2017-09-05T06:50:36.903Z,1017.05
2017-09-05T06:51:36.915Z,1017
2017-09-05T06:52:36.951Z,1016.98
2017-09-05T06:53:36.990Z,1017.03
2017-09-05T06:54:37.027Z,1017.02
2017-09-05T06:55:37.062Z,1016.97
2017-09-05T06:56:37.122Z,1016.95
2017-09-05T06:57:37.161Z,1016.92
2017-09-05T06:58:37.204Z,1016.89
2017-09-05T06:59:37.543Z,1016.87
2017-09-05T07:00:37.594Z,1016.94
2017-09-05T07:01:37.628Z,1016.89
2017-09-05T07:02:37.654Z,1016.95
2017-09-05T07:03:38.102Z,1017.02
2017-09-05T07:04:38.141Z,1016.99
2017-09-05T07:05:38.200Z,1017.01
2017-09-05T07:06:38.253Z,1016.97
2017-09-05T07:07:38.304Z,1016.95
2017-09-05T07:08:38.645Z,1016.98
2017-09-05T07:09:38.689Z,1016.97
2017-09-05T07:10:39.128Z,1016.97
2017-09-05T07:11:39.165Z,1016.83
2017-09-05T07:12:39.229Z,1016.79
2017-09-05T07:13:39.334Z,1016.84
2017-09-05T07:14:39.349Z,1016.87
2017-09-05T07:15:39.750Z,1016.78
2017-09-05T07:16:40.106Z,1016.72
2017-09-05T07:17:40.125Z,1016.69
2017-09-05T07:18:40.551Z,1016.78
2017-09-05T07:19:40.650Z,1016.76
2017-09-05T07:20:40.690Z,1016.8
2017-09-05T07:21:40.750Z,1016.79
2017-09-05T07:22:41.125Z,1016.74
2017-09-05T07:23:41.126Z,1016.67
2017-09-05T07:24:41.187Z,1016.65
2017-09-05T07:25:41.322Z,1016.71
2017-09-05T07:26:41.329Z,1016.63
2017-09-05T07:27:41.283Z,1016.58
2017-09-05T07:28:41.620Z,1016.58
2017-09-05T07:29:41.361Z,1016.5
2017-09-05T07:30:41.461Z,1016.52
2017-09-05T07:31:41.443Z,1016.47
2017-09-05T07:32:42.138Z,1016.39
2017-09-05T07:33:42.126Z,1016.37
2017-09-05T07:34:42.191Z,1016.34
2017-09-05T07:35:42.228Z,1016.3
2017-09-05T07:36:42.266Z,1016.3
2017-09-05T07:37:42.311Z,1016.24
2017-09-05T07:38:42.679Z,1016.21
2017-09-05T07:39:43.046Z,1016.21
2017-09-05T07:40:43.083Z,1016.17
2017-09-05T07:41:43.429Z,1016.2
2017-09-05T07:42:43.466Z,1016.2
2017-09-05T07:43:43.503Z,1016.18
2017-09-05T07:44:43.572Z,1016.21
2017-09-05T07:45:43.588Z,1016.18
2017-09-05T07:46:43.928Z,1016.2
2017-09-05T07:47:43.970Z,1016.13
2017-09-05T07:48:44.079Z,1016.16
2017-09-05T07:49:44.124Z,1016.16
2017-09-05T07:50:44.161Z,1016.14
2017-09-05T07:51:44.201Z,1016.16
2017-09-05T07:52:44.245Z,1016.12
2017-09-05T07:53:44.283Z,1016.13
2017-09-05T07:54:44.406Z,1016.12
2017-09-05T07:55:44.368Z,1016.17
2017-09-05T07:56:44.778Z,1016.12
2017-09-05T07:57:45.140Z,1016.16
2017-09-05T07:58:45.157Z,1016.14
2017-09-05T07:59:45.204Z,1016.16
2017-09-05T08:00:45.246Z,1016.15
2017-09-05T08:01:45.294Z,1016.14
2017-09-05T08:02:45.337Z,1016.15
2017-09-05T08:03:45.376Z,1016.08
2017-09-05T08:04:45.445Z,1016.1
2017-09-05T08:05:45.462Z,1016.09
2017-09-05T08:06:45.531Z,1016.1
2017-09-05T08:07:45.935Z,1016.09
2017-09-05T08:08:45.995Z,1016.09
2017-09-05T08:09:46.017Z,1016.08
2017-09-05T08:10:46.060Z,1016.1
2017-09-05T08:11:46.125Z,1016.12
2017-09-05T08:12:46.190Z,1016.17
2017-09-05T08:13:46.209Z,1016.16
2017-09-05T08:14:46.284Z,1016.15
2017-09-05T08:15:46.354Z,1016.13
2017-09-05T08:16:46.555Z,1016.14
2017-09-05T08:17:46.883Z,1016.18
2017-09-05T08:18:47.198Z,1016.2
2017-09-05T08:19:47.242Z,1016.22
2017-09-05T08:20:47.283Z,1016.23
2017-09-05T08:21:47.326Z,1016.25
2017-09-05T08:22:47.370Z,1016.25
2017-09-05T08:23:47.414Z,1016.29
2017-09-05T08:24:47.458Z,1016.35
2017-09-05T08:25:47.858Z,1016.36
2017-09-05T08:26:47.903Z,1016.33
2017-09-05T08:27:48.288Z,1016.4
2017-09-05T08:28:48.296Z,1016.37
2017-09-05T08:29:48.447Z,1016.42
2017-09-05T08:30:48.509Z,1016.44
2017-09-05T08:31:48.553Z,1016.46
2017-09-05T08:32:48.904Z,1016.45
2017-09-05T08:33:48.949Z,1016.49
2017-09-05T08:34:48.989Z,1016.5
2017-09-05T08:35:49.055Z,1016.47
2017-09-05T08:36:49.164Z,1016.48
2017-09-05T08:37:49.186Z,1016.49
2017-09-05T08:38:49.248Z,1016.55
2017-09-05T08:39:49.276Z,1016.54
2017-09-05T08:40:49.312Z,1016.58
2017-09-05T08:41:49.359Z,1016.54
2017-09-05T08:42:49.433Z,1016.38
2017-09-05T08:43:49.447Z,1016.37
2017-09-05T08:44:49.490Z,1016.36
2017-09-05T08:45:49.559Z,1016.38
2017-09-05T08:46:49.583Z,1016.33
2017-09-05T08:47:49.652Z,1016.35
2017-09-05T08:48:49.696Z,1016.39
2017-09-05T08:49:49.758Z,1016.47
2017-09-05T08:50:49.784Z,1016.43
2017-09-05T08:51:49.866Z,1016.34
2017-09-05T08:52:49.896Z,1016.38
2017-09-05T08:53:49.917Z,1016.35
2017-09-05T08:54:49.962Z,1016.32
2017-09-05T08:55:50.006Z,1016.41
2017-09-05T08:56:50.074Z,1016.4
2017-09-05T08:57:50.417Z,1016.39
2017-09-05T08:58:50.464Z,1016.45
2017-09-05T08:59:50.501Z,1016.5
2017-09-05T09:00:50.575Z,1016.56
2017-09-05T09:01:50.614Z,1016.6
2017-09-05T09:02:50.639Z,1016.57
2017-09-05T09:03:50.705Z,1016.58
2017-09-05T09:04:50.731Z,1016.54
2017-09-05T09:05:51.102Z,1016.54
2017-09-05T09:06:51.174Z,1016.51
2017-09-05T09:07:51.511Z,1016.47
2017-09-05T09:08:51.558Z,1016.51
2017-09-05T09:09:51.600Z,1016.54
2017-09-05T09:10:51.672Z,1016.51
2017-09-05T09:11:51.695Z,1016.56
2017-09-05T09:12:51.763Z,1016.5
2017-09-05T09:13:52.247Z,1016.51
2017-09-05T09:14:52.269Z,1016.47
2017-09-05T09:15:52.357Z,1016.56
2017-09-05T09:16:52.397Z,1016.54
2017-09-05T09:17:52.466Z,1016.56
2017-09-05T09:18:52.516Z,1016.63
2017-09-05T09:19:52.568Z,1016.57
2017-09-05T09:20:52.610Z,1016.59
2017-09-05T09:21:52.656Z,1016.55
2017-09-05T09:22:53.093Z,1016.58
2017-09-05T09:23:53.142Z,1016.57
2017-09-05T09:24:53.210Z,1016.57
2017-09-05T09:25:53.248Z,1016.61
2017-09-05T09:26:53.366Z,1016.65
2017-09-05T09:27:53.324Z,1016.65
2017-09-05T09:28:53.372Z,1016.72
2017-09-05T09:29:53.415Z,1016.64
2017-09-05T09:30:53.462Z,1016.67
2017-09-05T09:31:53.562Z,1016.59
2017-09-05T09:32:54.005Z,1016.69
2017-09-05T09:33:54.026Z,1016.72
2017-09-05T09:34:54.098Z,1016.68
2017-09-05T09:35:54.512Z,1016.69
2017-09-05T09:36:54.563Z,1016.74
2017-09-05T09:37:54.607Z,1016.69
2017-09-05T09:38:55.058Z,1016.72
2017-09-05T09:39:55.101Z,1016.75
2017-09-05T09:40:55.519Z,1016.79
2017-09-05T09:41:55.592Z,1016.81
2017-09-05T09:42:55.634Z,1016.77
2017-09-05T09:43:56.010Z,1016.85
2017-09-05T09:44:56.361Z,1016.86
2017-09-05T09:45:56.410Z,1016.91
2017-09-05T09:46:56.444Z,1016.87
2017-09-05T09:47:56.886Z,1016.88
2017-09-05T09:48:57.254Z,1016.89
2017-09-05T09:49:57.299Z,1016.89
2017-09-05T09:50:57.594Z,1016.88
2017-09-05T09:51:58.007Z,1016.94
2017-09-05T09:52:58.091Z,1016.89
2017-09-05T09:53:58.159Z,1016.91
2017-09-05T09:54:58.209Z,1016.9
2017-09-05T09:55:58.232Z,1016.88
2017-09-05T09:56:58.560Z,1016.89
2017-09-05T09:57:59.001Z,1016.9
2017-09-05T09:58:59.347Z,1016.93
2017-09-05T09:59:59.389Z,1016.91
2017-09-05T10:00:59.434Z,1016.94
2017-09-05T10:01:59.516Z,1016.94
2017-09-05T10:02:59.561Z,1016.97
2017-09-05T10:03:59.610Z,1017.06
2017-09-05T10:04:59.655Z,1017.06
2017-09-05T10:05:59.700Z,1017.09
2017-09-05T10:06:59.755Z,1017.1
2017-09-05T10:07:59.855Z,1017.14
2017-09-05T10:08:59.894Z,1017.08
2017-09-05T10:09:59.964Z,1017.01
2017-09-05T10:11:00.102Z,1017.12
2017-09-05T10:12:00.189Z,1017.06
2017-09-05T10:13:00.233Z,1017.13
2017-09-05T10:14:00.300Z,1017.11
2017-09-05T10:15:00.683Z,1017.17
2017-09-05T10:16:00.762Z,1017.18
2017-09-05T10:17:00.786Z,1017.18
2017-09-05T10:18:00.852Z,1017.11
2017-09-05T10:19:00.966Z,1017.12
2017-09-05T10:20:01.426Z,1017.24
2017-09-05T10:21:01.803Z,1017.32
2017-09-05T10:22:02.200Z,1017.34
2017-09-05T10:23:02.218Z,1017.55
2017-09-05T10:24:02.294Z,1017.5
2017-09-05T10:25:02.341Z,1017.28
2017-09-05T10:26:02.365Z,1017.41
2017-09-05T10:27:02.420Z,1017.35
2017-09-05T10:28:02.459Z,1017.44
2017-09-05T10:29:02.507Z,1017.64
2017-09-05T10:30:02.567Z,1017.85
2017-09-05T10:31:02.592Z,1017.93
2017-09-05T10:32:02.630Z,1017.94
2017-09-05T10:33:02.697Z,1017.96
2017-09-05T10:34:02.717Z,1018.28
2017-09-05T10:35:02.785Z,1018.5
2017-09-05T10:36:02.805Z,1018.91
2017-09-05T10:37:02.863Z,1019.02
2017-09-05T10:38:02.886Z,1019.33
2017-09-05T10:39:02.952Z,1019.67
2017-09-05T10:40:02.969Z,1020.01
2017-09-05T10:41:03.013Z,1019.83
2017-09-05T10:42:03.372Z,1016.12
2017-09-05T10:43:03.457Z,1020.52
2017-09-05T10:44:03.492Z,1020.42
2017-09-05T10:45:03.590Z,1019.77
2017-09-05T10:46:03.995Z,1020.14
2017-09-05T10:47:04.451Z,1020.92
2017-09-05T10:48:04.474Z,1021.54
2017-09-05T10:49:04.580Z,1021.65
2017-09-05T10:50:04.881Z,1021.45
2017-09-05T10:51:04.644Z,1021.6
2017-09-05T10:52:04.701Z,1020.35
2017-09-05T10:53:04.719Z,1017.05
2017-09-05T10:54:04.761Z,1016.18
2017-09-05T10:55:04.924Z,1016
2017-09-05T10:56:04.851Z,1016.04
2017-09-05T10:57:05.193Z,1015.95
2017-09-05T10:58:05.294Z,1016.12
2017-09-05T10:59:05.311Z,1016.04
2017-09-05T11:00:05.358Z,1015.9
2017-09-05T11:01:05.390Z,1015.98
2017-09-05T11:02:05.454Z,1015.96
2017-09-05T11:03:05.493Z,1015.97
2017-09-05T11:04:05.513Z,1015.98
2017-09-05T11:05:05.962Z,1015.98
2017-09-05T11:06:06.003Z,1015.97
2017-09-05T11:07:06.018Z,1015.96
2017-09-05T11:08:06.104Z,1015.95
2017-09-05T11:09:06.114Z,1015.88
2017-09-05T11:10:06.157Z,1015.9
2017-09-05T11:11:06.368Z,1015.85
2017-09-05T11:12:06.385Z,1015.84
2017-09-05T11:13:06.425Z,1015.81
2017-09-05T11:14:06.463Z,1015.8
2017-09-05T11:15:06.505Z,1015.81
2017-09-05T11:16:06.568Z,1015.82
2017-09-05T11:17:06.583Z,1015.82
2017-09-05T11:18:06.623Z,1015.83
2017-09-05T11:19:06.692Z,1015.86
2017-09-05T11:20:06.743Z,1015.86
2017-09-05T11:21:06.777Z,1015.77
2017-09-05T11:22:07.222Z,1015.72
2017-09-05T11:23:07.314Z,1015.71
2017-09-05T11:24:07.355Z,1015.64
2017-09-05T11:25:07.395Z,1015.63
2017-09-05T11:26:07.454Z,1015.63
2017-09-05T11:27:07.493Z,1015.65
2017-09-05T11:28:07.622Z,1015.65
2017-09-05T11:29:08.000Z,1015.63
2017-09-05T11:30:08.016Z,1015.58
2017-09-05T11:31:08.489Z,1015.6
2017-09-05T11:32:08.551Z,1015.61
2017-09-05T11:33:08.564Z,1015.59
2017-09-05T11:34:08.915Z,1015.58
2017-09-05T11:35:08.951Z,1015.53
2017-09-05T11:36:08.992Z,1015.53
2017-09-05T11:37:09.013Z,1015.63
2017-09-05T11:38:09.055Z,1015.61
2017-09-05T11:39:09.187Z,1015.57
2017-09-05T11:40:09.564Z,1015.55
2017-09-05T11:41:09.697Z,1015.57
2017-09-05T11:42:09.711Z,1015.6
2017-09-05T11:43:09.770Z,1015.52
2017-09-05T11:44:09.808Z,1015.6
2017-09-05T11:45:09.826Z,1015.61
2017-09-05T11:46:09.890Z,1015.61
2017-09-05T11:47:09.924Z,1015.58
2017-09-05T11:48:09.948Z,1015.53
2017-09-05T11:49:09.982Z,1015.54
2017-09-05T11:50:10.080Z,1015.52
2017-09-05T11:51:10.095Z,1015.47
2017-09-05T11:52:10.159Z,1015.49
2017-09-05T11:53:10.196Z,1015.52
2017-09-05T11:54:10.591Z,1015.47
2017-09-05T11:55:10.653Z,1015.49
2017-09-05T11:56:10.693Z,1015.47
2017-09-05T11:57:11.049Z,1015.48
2017-09-05T11:58:11.104Z,1015.51
2017-09-05T11:59:11.118Z,1015.46
2017-09-05T12:00:11.160Z,1015.45
2017-09-05T12:01:11.204Z,1015.46
2017-09-05T12:02:11.254Z,1015.41
2017-09-05T12:03:11.292Z,1015.47
2017-09-05T12:04:11.660Z,1015.43
2017-09-05T12:05:11.694Z,1015.43
2017-09-05T12:06:11.709Z,1015.38
2017-09-05T12:07:11.789Z,1015.36
2017-09-05T12:08:12.187Z,1015.32
2017-09-05T12:09:12.222Z,1015.29